createdAt,value
2023-03-16T00:00:27.989Z,3.14
2023-03-16T00:02:29.821Z,3.14
2023-03-16T00:04:31.980Z,3.13
2023-03-16T00:06:33.680Z,3.13
2023-03-16T00:08:37.431Z,3.12
2023-03-16T00:10:39.198Z,3.12
2023-03-16T00:12:41.120Z,3.11
2023-03-16T00:14:44.049Z,3.09
2023-03-16T00:16:52.438Z,3.09
2023-03-16T00:18:54.248Z,3.09
2023-03-16T00:20:58.011Z,3.10
2023-03-16T00:22:59.884Z,3.10
2023-03-16T00:25:01.514Z,3.10
2023-03-16T00:27:03.116Z,3.09
2023-03-16T00:29:04.962Z,3.11
2023-03-16T00:31:08.238Z,3.10
2023-03-16T00:33:12.717Z,3.11
2023-03-16T00:35:15.214Z,3.12
2023-03-16T00:37:19.131Z,3.13
2023-03-16T00:39:21.107Z,3.16
2023-03-16T00:41:22.635Z,3.16
2023-03-16T00:43:24.770Z,3.19
2023-03-16T00:45:26.402Z,3.22
2023-03-16T00:47:30.504Z,3.23
2023-03-16T00:49:35.895Z,3.25
2023-03-16T00:51:38.518Z,3.27
2023-03-16T00:53:41.988Z,3.28
2023-03-16T00:55:44.097Z,3.31
2023-03-16T00:57:45.835Z,3.33
2023-03-16T00:59:48.349Z,3.35
2023-03-16T01:01:49.999Z,3.35
2023-03-16T01:03:51.533Z,3.39
2023-03-16T01:05:55.409Z,3.40
2023-03-16T01:07:57.244Z,3.42
2023-03-16T01:10:01.479Z,3.42
2023-03-16T01:12:06.250Z,3.44
2023-03-16T01:14:08.265Z,3.46
2023-03-16T01:16:10.853Z,3.46
2023-03-16T01:18:12.737Z,3.48
2023-03-16T01:20:14.536Z,3.48
2023-03-16T01:22:20.098Z,3.49
2023-03-16T01:24:22.312Z,3.50
2023-03-16T01:26:25.476Z,3.51
2023-03-16T01:28:29.543Z,3.51
2023-03-16T01:30:31.408Z,3.52
2023-03-16T01:32:33.266Z,3.54
2023-03-16T01:34:35.544Z,3.54
2023-03-16T01:36:38.977Z,3.55
2023-03-16T01:38:42.815Z,3.54
2023-03-16T01:40:44.408Z,3.55
2023-03-16T01:42:47.451Z,3.55
2023-03-16T01:44:52.364Z,3.56
2023-03-16T01:46:54.139Z,3.57
2023-03-16T01:49:06.956Z,3.58
2023-03-16T01:51:12.279Z,3.57
2023-03-16T01:53:15.685Z,3.56
2023-03-16T01:55:21.251Z,3.58
2023-03-16T01:57:26.242Z,3.57
2023-03-16T01:59:32.713Z,3.56
2023-03-16T02:01:35.039Z,3.57
2023-03-16T02:03:36.679Z,3.56
2023-03-16T02:05:44.852Z,3.55
2023-03-16T02:07:48.901Z,3.52
2023-03-16T02:09:54.224Z,3.55
2023-03-16T02:11:58.684Z,3.55
2023-03-16T02:14:08.093Z,3.54
2023-03-16T02:16:10.758Z,3.55
2023-03-16T02:18:12.572Z,3.55
2023-03-16T02:20:30.255Z,3.55
2023-03-16T02:22:32.358Z,3.54
2023-03-16T02:24:36.432Z,3.55
2023-03-16T02:26:46.202Z,3.53
2023-03-16T02:29:00.001Z,3.54
2023-03-16T02:31:04.582Z,3.52
2023-03-16T02:33:07.497Z,3.53
2023-03-16T02:35:10.780Z,3.52
2023-03-16T02:37:12.398Z,3.50
2023-03-16T02:39:14.022Z,3.51
2023-03-16T02:41:20.110Z,3.49
2023-03-16T02:43:27.180Z,3.49
2023-03-16T02:45:33.221Z,3.48
2023-03-16T02:47:41.654Z,3.48
2023-03-16T02:49:45.443Z,3.46
2023-03-16T02:51:49.984Z,3.45
2023-03-16T02:53:54.001Z,3.43
2023-03-16T02:55:56.108Z,3.41
2023-03-16T02:57:58.317Z,3.41
2023-03-16T03:00:00.596Z,3.39
2023-03-16T03:02:02.542Z,3.38
2023-03-16T03:04:06.532Z,3.37
2023-03-16T03:06:08.798Z,3.36
2023-03-16T03:08:12.419Z,3.35
2023-03-16T03:10:14.012Z,3.32
2023-03-16T03:12:15.869Z,3.30
2023-03-16T03:14:17.540Z,3.30
2023-03-16T03:16:19.462Z,3.29
2023-03-16T03:18:21.407Z,3.26
2023-03-16T03:20:24.624Z,3.25
2023-03-16T03:22:30.243Z,3.23
2023-03-16T03:24:34.426Z,3.21
2023-03-16T03:26:36.656Z,3.20
2023-03-16T03:28:39.584Z,3.17
2023-03-16T03:30:41.174Z,3.15
2023-03-16T03:32:43.002Z,3.13
2023-03-16T03:34:46.825Z,3.10
2023-03-16T03:36:49.923Z,3.08
2023-03-16T03:38:51.777Z,3.06
2023-03-16T03:40:54.394Z,3.03
2023-03-16T03:42:56.095Z,3.02
2023-03-16T03:44:57.909Z,3.01
2023-03-16T03:46:59.719Z,2.98
2023-03-16T03:49:01.485Z,2.96
2023-03-16T03:51:03.349Z,2.95
2023-03-16T03:53:10.225Z,2.93
2023-03-16T03:55:12.150Z,2.92
2023-03-16T03:57:13.927Z,2.90
2023-03-16T03:59:15.572Z,2.89
2023-03-16T04:01:17.365Z,2.88
2023-03-16T04:03:19.102Z,2.87
2023-03-16T04:05:22.496Z,2.85
2023-03-16T04:07:24.236Z,2.84
2023-03-16T04:09:27.256Z,2.84
2023-03-16T04:11:28.836Z,2.82
2023-03-16T04:13:30.510Z,2.82
2023-03-16T04:15:32.143Z,2.81
2023-03-16T04:17:34.500Z,2.80
2023-03-16T04:19:37.655Z,2.80
2023-03-16T04:21:39.771Z,2.79
2023-03-16T04:23:49.117Z,2.78
2023-03-16T04:25:52.288Z,2.80
2023-03-16T04:27:54.209Z,2.78
2023-03-16T04:29:55.764Z,2.78
2023-03-16T04:31:57.561Z,2.77
2023-03-16T04:33:59.604Z,2.77
2023-03-16T04:36:01.658Z,2.77
2023-03-16T04:38:03.904Z,2.78
2023-03-16T04:40:06.604Z,2.78
2023-03-16T04:42:09.715Z,2.77
2023-03-16T04:44:11.440Z,2.78
2023-03-16T04:46:13.334Z,2.79
2023-03-16T04:48:14.963Z,2.79
2023-03-16T04:50:16.614Z,2.79
2023-03-16T04:52:18.454Z,2.79
2023-03-16T04:54:20.074Z,2.79
2023-03-16T04:56:21.931Z,2.78
2023-03-16T04:58:25.267Z,2.78
2023-03-16T05:00:27.263Z,2.78
2023-03-16T05:02:28.982Z,2.78
2023-03-16T05:04:30.516Z,2.78
2023-03-16T05:06:32.320Z,2.78
2023-03-16T05:08:33.884Z,2.76
2023-03-16T05:10:35.776Z,2.76
2023-03-16T05:12:37.335Z,2.76
2023-03-16T05:14:40.425Z,2.74
2023-03-16T05:16:42.079Z,2.73
2023-03-16T05:18:43.617Z,2.71
2023-03-16T05:20:45.666Z,2.72
2023-03-16T05:22:47.353Z,2.71
2023-03-16T05:24:48.971Z,2.70
2023-03-16T05:26:51.035Z,2.69
2023-03-16T05:28:52.707Z,2.67
2023-03-16T05:30:55.849Z,2.66
2023-03-16T05:32:57.404Z,2.64
2023-03-16T05:34:59.294Z,2.63
2023-03-16T05:37:01.038Z,2.61
2023-03-16T05:39:02.914Z,2.60
2023-03-16T05:41:05.997Z,2.59
2023-03-16T05:43:08.283Z,2.58
2023-03-16T05:45:12.671Z,2.55
2023-03-16T05:47:15.741Z,2.54
2023-03-16T05:49:17.867Z,2.53
2023-03-16T05:51:19.454Z,2.52
2023-03-16T05:53:21.252Z,2.51
2023-03-16T05:55:22.896Z,2.50
2023-03-16T05:57:24.814Z,2.50
2023-03-16T05:59:27.000Z,2.49
2023-03-16T06:01:29.141Z,2.49
2023-03-16T06:03:32.247Z,2.49
2023-03-16T06:05:34.040Z,2.49
2023-03-16T06:07:37.679Z,2.50
2023-03-16T06:09:39.493Z,2.49
2023-03-16T06:11:41.449Z,2.51
2023-03-16T06:13:43.513Z,2.52
2023-03-16T06:15:45.125Z,2.54
2023-03-16T06:17:46.716Z,2.55
2023-03-16T06:19:49.793Z,2.56
2023-03-16T06:21:52.079Z,2.58
2023-03-16T06:23:53.757Z,2.59
2023-03-16T06:25:56.145Z,2.61
2023-03-16T06:27:59.055Z,2.64
2023-03-16T06:30:00.692Z,2.66
2023-03-16T06:32:02.868Z,2.69
2023-03-16T06:34:04.795Z,2.72
2023-03-16T06:36:08.757Z,2.76
2023-03-16T06:38:10.353Z,2.84
2023-03-16T06:40:12.648Z,2.87
2023-03-16T06:42:14.461Z,2.99
2023-03-16T06:44:16.082Z,3.08
2023-03-16T06:46:17.797Z,3.15
2023-03-16T06:48:19.437Z,3.22
2023-03-16T06:50:21.227Z,3.25
2023-03-16T06:52:24.147Z,3.32
2023-03-16T06:54:26.140Z,3.36
2023-03-16T06:56:27.692Z,3.41
2023-03-16T06:58:29.204Z,3.41
2023-03-16T07:00:32.113Z,3.46
2023-03-16T07:02:33.847Z,3.56
2023-03-16T07:04:35.546Z,3.68
2023-03-16T07:06:37.072Z,3.76
2023-03-16T07:08:39.989Z,3.87
2023-03-16T07:10:41.520Z,3.97
2023-03-16T07:12:43.419Z,4.08
2023-03-16T07:14:46.285Z,4.18
2023-03-16T07:16:49.999Z,4.29
2023-03-16T07:18:51.888Z,4.39
2023-03-16T07:20:53.838Z,4.48
2023-03-16T07:22:55.621Z,4.60
2023-03-16T07:24:58.653Z,4.73
2023-03-16T07:27:00.301Z,4.81
2023-03-16T07:29:02.317Z,4.95
2023-03-16T07:31:04.611Z,5.07
2023-03-16T07:33:06.451Z,5.19
2023-03-16T07:35:09.365Z,5.33
2023-03-16T07:37:11.336Z,5.45
2023-03-16T07:39:12.874Z,5.57
2023-03-16T07:41:15.855Z,5.68
2023-03-16T07:43:17.401Z,5.79
2023-03-16T07:45:19.331Z,5.90
2023-03-16T07:47:21.760Z,6.01
2023-03-16T07:49:24.298Z,6.11
2023-03-16T07:51:26.110Z,6.22
2023-03-16T07:53:27.613Z,6.32
2023-03-16T07:55:29.176Z,6.44
2023-03-16T07:57:32.156Z,6.56
2023-03-16T07:59:34.449Z,6.69
2023-03-16T08:01:36.312Z,6.81
2023-03-16T08:03:38.857Z,6.94
2023-03-16T08:05:42.081Z,7.06
2023-03-16T08:07:43.899Z,7.19
2023-03-16T08:09:45.450Z,7.31
2023-03-16T08:11:47.069Z,7.44
2023-03-16T08:13:50.102Z,7.57
2023-03-16T08:15:53.009Z,7.70
2023-03-16T08:17:54.611Z,7.83
2023-03-16T08:19:56.416Z,7.98
2023-03-16T08:22:01.708Z,8.10
2023-03-16T08:24:04.250Z,8.23
2023-03-16T08:26:06.584Z,8.38
2023-03-16T08:28:08.591Z,8.50
2023-03-16T08:30:15.680Z,8.64
2023-03-16T08:32:17.580Z,8.78
2023-03-16T08:34:19.441Z,8.92
2023-03-16T08:36:21.176Z,9.04
2023-03-16T08:38:23.011Z,9.15
2023-03-16T08:40:26.462Z,9.29
2023-03-16T08:42:28.389Z,9.42
2023-03-16T08:44:30.142Z,9.56
2023-03-16T08:46:33.956Z,9.69
2023-03-16T08:48:36.165Z,9.84
2023-03-16T08:50:37.906Z,9.95
2023-03-16T08:52:39.882Z,10.07
2023-03-16T08:54:47.226Z,10.19
2023-03-16T08:56:55.038Z,10.31
2023-03-16T08:58:57.205Z,10.44
2023-03-16T09:00:59.068Z,10.54
2023-03-16T09:03:02.380Z,10.64
2023-03-16T09:05:04.337Z,10.71
2023-03-16T09:07:09.417Z,10.83
2023-03-16T09:09:11.499Z,10.94
2023-03-16T09:11:15.212Z,11.06
2023-03-16T09:13:17.007Z,11.19
2023-03-16T09:15:20.459Z,11.30
2023-03-16T09:17:22.469Z,11.41
2023-03-16T09:19:30.630Z,11.51
2023-03-16T09:21:36.914Z,11.61
2023-03-16T09:23:38.691Z,11.70
2023-03-16T09:25:43.256Z,11.82
2023-03-16T09:27:44.896Z,11.91
2023-03-16T09:29:46.758Z,11.99
2023-03-16T09:31:49.767Z,12.08
2023-03-16T09:33:51.342Z,12.17
2023-03-16T09:35:54.753Z,12.26
2023-03-16T09:38:05.527Z,12.37
2023-03-16T09:40:14.973Z,12.48
2023-03-16T09:42:25.527Z,12.59
2023-03-16T09:44:39.108Z,12.73
2023-03-16T09:46:44.196Z,12.84
2023-03-16T09:48:48.294Z,12.95
2023-03-16T09:50:51.520Z,13.07
2023-03-16T09:53:03.795Z,13.22
2023-03-16T09:55:12.678Z,13.37
2023-03-16T09:57:24.670Z,13.50
2023-03-16T09:59:26.564Z,13.63
2023-03-16T10:01:55.348Z,13.78
2023-03-16T10:04:11.825Z,13.95
2023-03-16T10:06:14.702Z,14.09
2023-03-16T10:08:23.182Z,14.19
2023-03-16T10:10:49.852Z,14.33
2023-03-16T10:12:53.268Z,14.46
2023-03-16T10:14:59.882Z,14.54
2023-03-16T10:17:06.517Z,14.66
2023-03-16T10:19:13.636Z,14.77
2023-03-16T10:21:18.134Z,14.86
2023-03-16T10:23:23.295Z,14.91
2023-03-16T10:25:32.816Z,14.98
2023-03-16T10:27:37.035Z,15.06
2023-03-16T10:29:39.968Z,15.13
2023-03-16T10:31:42.589Z,15.22
2023-03-16T10:33:44.256Z,15.35
2023-03-16T10:35:47.981Z,15.45
2023-03-16T10:37:49.692Z,15.56
2023-03-16T10:39:53.335Z,15.64
2023-03-16T10:41:57.647Z,15.71
2023-03-16T10:44:02.168Z,15.76
2023-03-16T10:46:03.998Z,15.81
2023-03-16T10:48:07.492Z,15.89
2023-03-16T10:50:15.222Z,15.99
2023-03-16T10:52:32.083Z,16.08
2023-03-16T10:54:35.923Z,16.20
2023-03-16T10:56:40.419Z,16.31
2023-03-16T10:58:43.531Z,16.40
2023-03-16T11:00:46.339Z,16.50
2023-03-16T11:02:49.541Z,16.58
2023-03-16T11:04:51.358Z,16.70
2023-03-16T11:06:56.079Z,16.79
2023-03-16T11:09:04.175Z,16.94
2023-03-16T11:11:10.231Z,17.03
2023-03-16T11:13:15.298Z,17.11
2023-03-16T11:15:25.767Z,17.10
2023-03-16T11:17:35.854Z,17.04
2023-03-16T11:19:44.948Z,16.96
2023-03-16T11:21:51.403Z,16.94
2023-03-16T11:23:55.731Z,16.98
2023-03-16T11:26:01.283Z,17.02
2023-03-16T11:28:13.517Z,17.12
2023-03-16T11:30:24.488Z,17.23
2023-03-16T11:32:31.033Z,17.34
2023-03-16T11:34:34.713Z,17.45
2023-03-16T11:36:45.934Z,17.57
2023-03-16T11:38:55.786Z,17.67
2023-03-16T11:41:01.213Z,17.77
2023-03-16T11:43:19.154Z,17.91
2023-03-16T11:45:34.273Z,18.02
2023-03-16T11:47:58.613Z,18.10
2023-03-16T11:50:05.838Z,18.14
2023-03-16T11:52:17.007Z,18.18
2023-03-16T11:54:39.691Z,18.24
2023-03-16T11:56:46.969Z,18.20
2023-03-16T11:59:23.544Z,18.23
2023-03-16T12:01:36.797Z,18.25
2023-03-16T12:03:52.415Z,18.29
2023-03-16T12:06:02.041Z,18.32
2023-03-16T12:08:20.163Z,18.35
2023-03-16T12:10:25.758Z,18.34
2023-03-16T12:12:40.093Z,18.33
2023-03-16T12:14:46.724Z,18.33
2023-03-16T12:16:56.261Z,18.34
2023-03-16T12:19:03.396Z,18.34
2023-03-16T12:21:11.616Z,18.34
2023-03-16T12:23:18.100Z,18.32
2023-03-16T12:25:22.266Z,18.31
2023-03-16T12:27:29.832Z,18.26
2023-03-16T12:29:36.620Z,18.20
2023-03-16T12:31:47.127Z,18.16
2023-03-16T12:34:02.363Z,18.15
2023-03-16T12:36:35.681Z,18.19
2023-03-16T12:38:46.344Z,18.18
2023-03-16T12:40:55.512Z,18.18
2023-03-16T12:43:09.137Z,18.25
2023-03-16T12:45:15.621Z,18.28
2023-03-16T12:47:28.359Z,18.30
2023-03-16T12:49:35.410Z,18.28
2023-03-16T12:51:39.374Z,18.24
2023-03-16T12:53:44.232Z,18.27
2023-03-16T12:55:45.857Z,18.30
2023-03-16T12:57:50.653Z,18.34
2023-03-16T12:59:56.030Z,18.39
2023-03-16T13:01:59.652Z,18.40
2023-03-16T13:04:06.767Z,18.41
2023-03-16T13:06:17.776Z,18.45
2023-03-16T13:08:21.771Z,18.44
2023-03-16T13:10:23.575Z,18.45
2023-03-16T13:12:28.316Z,18.46
2023-03-16T13:14:39.921Z,18.48
2023-03-16T13:16:41.768Z,18.47
2023-03-16T13:18:43.432Z,18.41
2023-03-16T13:20:53.190Z,18.39
2023-03-16T13:23:20.339Z,18.38
2023-03-16T13:25:34.792Z,18.34
2023-03-16T13:27:39.143Z,18.32
2023-03-16T13:29:40.961Z,18.29
2023-03-16T13:31:42.633Z,18.27
2023-03-16T13:33:46.450Z,18.27
2023-03-16T13:35:49.761Z,18.26
2023-03-16T13:37:51.814Z,18.28
2023-03-16T13:39:56.242Z,18.29
2023-03-16T13:41:59.816Z,18.29
2023-03-16T13:44:01.464Z,18.27
2023-03-16T13:46:14.401Z,18.25
2023-03-16T13:48:17.773Z,18.13
2023-03-16T13:50:20.456Z,18.03
2023-03-16T13:52:27.093Z,17.98
2023-03-16T13:54:31.042Z,17.94
2023-03-16T13:56:34.221Z,17.93
2023-03-16T13:58:38.324Z,17.92
2023-03-16T14:00:44.579Z,17.96
2023-03-16T14:02:47.875Z,17.97
2023-03-16T14:04:49.465Z,17.99
2023-03-16T14:06:56.126Z,18.03
2023-03-16T14:09:02.893Z,18.04
2023-03-16T14:11:05.242Z,18.04
2023-03-16T14:13:12.489Z,18.05
2023-03-16T14:15:14.692Z,18.02
2023-03-16T14:17:19.033Z,17.98
2023-03-16T14:19:24.020Z,17.95
2023-03-16T14:21:28.534Z,17.89
2023-03-16T14:23:35.871Z,17.87
2023-03-16T14:25:37.830Z,17.85
2023-03-16T14:27:44.291Z,17.84
2023-03-16T14:29:54.283Z,17.81
2023-03-16T14:31:57.163Z,17.75
2023-03-16T14:34:02.116Z,17.72
2023-03-16T14:36:17.092Z,17.67
2023-03-16T14:38:21.430Z,17.58
2023-03-16T14:40:29.578Z,17.45
2023-03-16T14:42:32.557Z,17.37
2023-03-16T14:44:36.155Z,17.28
2023-03-16T14:46:40.778Z,17.19
2023-03-16T14:48:43.134Z,17.11
2023-03-16T14:50:53.878Z,17.06
2023-03-16T14:52:56.800Z,16.98
2023-03-16T14:54:59.678Z,16.94
2023-03-16T14:57:04.928Z,16.88
2023-03-16T14:59:06.713Z,16.81
2023-03-16T15:01:16.332Z,16.72
2023-03-16T15:03:22.416Z,16.67
2023-03-16T15:05:31.854Z,16.62
2023-03-16T15:07:39.891Z,16.53
2023-03-16T15:09:42.555Z,16.45
2023-03-16T15:11:44.119Z,16.37
2023-03-16T15:13:47.025Z,16.27
2023-03-16T15:15:48.959Z,16.24
2023-03-16T15:17:52.369Z,16.18
2023-03-16T15:19:55.833Z,16.12
2023-03-16T15:22:00.214Z,16.06
2023-03-16T15:24:02.463Z,16.02
2023-03-16T15:26:04.878Z,15.97
2023-03-16T15:28:12.753Z,15.95
2023-03-16T15:30:17.907Z,15.89
2023-03-16T15:32:19.821Z,15.84
2023-03-16T15:34:21.621Z,15.77
2023-03-16T15:36:26.735Z,15.71
2023-03-16T15:38:31.589Z,15.62
2023-03-16T15:40:35.202Z,15.54
2023-03-16T15:42:38.930Z,15.47
2023-03-16T15:44:41.302Z,15.38
2023-03-16T15:46:43.190Z,15.24
2023-03-16T15:48:45.079Z,15.14
2023-03-16T15:50:52.028Z,15.06
2023-03-16T15:53:00.527Z,15.02
2023-03-16T15:55:02.556Z,14.96
2023-03-16T15:57:04.416Z,14.88
2023-03-16T15:59:06.693Z,14.81
2023-03-16T16:01:16.886Z,14.66
2023-03-16T16:03:21.967Z,14.51
2023-03-16T16:05:25.307Z,14.35
2023-03-16T16:07:26.957Z,14.24
2023-03-16T16:09:30.129Z,14.12
2023-03-16T16:11:31.915Z,14.00
2023-03-16T16:13:44.108Z,13.86
2023-03-16T16:15:46.970Z,13.73
2023-03-16T16:18:08.567Z,13.60
2023-03-16T16:20:19.563Z,13.47
2023-03-16T16:22:21.212Z,13.36
2023-03-16T16:24:23.015Z,13.22
2023-03-16T16:26:46.956Z,13.10
2023-03-16T16:28:49.814Z,12.96
2023-03-16T16:30:51.441Z,12.84
2023-03-16T16:32:55.411Z,12.75
2023-03-16T16:35:04.452Z,12.65
2023-03-16T16:37:06.504Z,12.56
2023-03-16T16:39:10.052Z,12.46
2023-03-16T16:41:25.728Z,12.35
2023-03-16T16:43:34.452Z,12.25
2023-03-16T16:45:36.109Z,12.13
2023-03-16T16:47:37.694Z,12.02
2023-03-16T16:49:39.214Z,11.93
2023-03-16T16:51:41.355Z,11.79
2023-03-16T16:53:43.547Z,11.67
2023-03-16T16:55:45.369Z,11.56
2023-03-16T16:57:49.439Z,11.44
2023-03-16T16:59:52.695Z,11.31
2023-03-16T17:01:54.483Z,11.20
2023-03-16T17:03:56.230Z,11.07
2023-03-16T17:05:58.923Z,10.97
2023-03-16T17:08:00.764Z,10.89
2023-03-16T17:10:02.623Z,10.83
2023-03-16T17:12:16.813Z,10.75
2023-03-16T17:14:20.834Z,10.67
2023-03-16T17:16:37.860Z,10.60
2023-03-16T17:18:39.609Z,10.51
2023-03-16T17:20:41.369Z,10.42
2023-03-16T17:22:47.002Z,10.35
2023-03-16T17:24:49.257Z,10.24
2023-03-16T17:26:53.155Z,10.14
2023-03-16T17:28:59.577Z,10.05
2023-03-16T17:31:01.454Z,9.97
2023-03-16T17:33:12.463Z,9.89
2023-03-16T17:35:15.091Z,9.78
2023-03-16T17:37:18.728Z,9.70
2023-03-16T17:39:22.290Z,9.63
2023-03-16T17:41:27.046Z,9.56
2023-03-16T17:43:29.419Z,9.49
2023-03-16T17:45:31.212Z,9.43
2023-03-16T17:47:33.224Z,9.37
2023-03-16T17:49:36.204Z,9.34
2023-03-16T17:51:40.364Z,9.27
2023-03-16T17:53:42.632Z,9.20
2023-03-16T17:55:45.877Z,9.13
2023-03-16T17:57:49.614Z,9.06
2023-03-16T17:59:51.330Z,8.98
2023-03-16T18:01:52.946Z,8.90
2023-03-16T18:03:56.863Z,8.82
2023-03-16T18:05:59.861Z,8.73
2023-03-16T18:08:13.082Z,8.65
2023-03-16T18:10:18.227Z,8.57
2023-03-16T18:12:20.007Z,8.48
2023-03-16T18:14:34.062Z,8.39
2023-03-16T18:16:36.574Z,8.30
2023-03-16T18:18:41.666Z,8.23
2023-03-16T18:20:43.574Z,8.16
2023-03-16T18:22:46.773Z,8.10
2023-03-16T18:24:49.661Z,8.02
2023-03-16T18:26:51.743Z,7.97
2023-03-16T18:28:53.765Z,7.91
2023-03-16T18:30:57.149Z,7.82
2023-03-16T18:33:00.211Z,7.76
2023-03-16T18:35:03.974Z,7.70
2023-03-16T18:37:13.286Z,7.64
2023-03-16T18:39:20.801Z,7.59
2023-03-16T18:41:25.577Z,7.54
2023-03-16T18:43:27.590Z,7.49
2023-03-16T18:45:30.295Z,7.45
2023-03-16T18:47:32.536Z,7.42
2023-03-16T18:49:35.917Z,7.37
2023-03-16T18:51:39.120Z,7.35
2023-03-16T18:53:40.939Z,7.31
2023-03-16T18:55:46.158Z,7.29
2023-03-16T18:57:49.067Z,7.28
2023-03-16T18:59:51.561Z,7.28
2023-03-16T19:01:53.811Z,7.28
2023-03-16T19:03:57.580Z,7.28
2023-03-16T19:06:02.056Z,7.28
2023-03-16T19:08:05.421Z,7.30
2023-03-16T19:10:23.702Z,7.32
2023-03-16T19:12:29.289Z,7.30
2023-03-16T19:14:32.440Z,7.31
2023-03-16T19:16:34.127Z,7.29
2023-03-16T19:18:35.738Z,7.28
2023-03-16T19:20:38.000Z,7.27
2023-03-16T19:22:39.857Z,7.28
2023-03-16T19:24:46.239Z,7.28
2023-03-16T19:26:47.816Z,7.28
2023-03-16T19:28:51.265Z,7.28
2023-03-16T19:30:53.371Z,7.29
2023-03-16T19:32:56.139Z,7.28
2023-03-16T19:34:57.882Z,7.29
2023-03-16T19:36:59.915Z,7.29
2023-03-16T19:39:03.511Z,7.28
2023-03-16T19:41:07.264Z,7.27
2023-03-16T19:43:16.237Z,7.26
2023-03-16T19:45:23.557Z,7.25
2023-03-16T19:47:28.885Z,7.25
2023-03-16T19:49:31.247Z,7.25
2023-03-16T19:51:33.088Z,7.24
2023-03-16T19:53:34.887Z,7.25
2023-03-16T19:55:36.725Z,7.22
2023-03-16T19:57:38.325Z,7.22
2023-03-16T19:59:42.509Z,7.21
2023-03-16T20:01:47.700Z,7.19
2023-03-16T20:03:51.644Z,7.20
2023-03-16T20:05:55.036Z,7.19
2023-03-16T20:07:59.820Z,7.20
2023-03-16T20:10:01.778Z,7.20
2023-03-16T20:12:04.036Z,7.20
2023-03-16T20:14:05.988Z,7.19
2023-03-16T20:16:11.446Z,7.19
2023-03-16T20:18:16.767Z,7.19
2023-03-16T20:20:21.981Z,7.17
2023-03-16T20:22:25.583Z,7.16
2023-03-16T20:24:27.467Z,7.17
2023-03-16T20:26:31.358Z,7.17
2023-03-16T20:28:36.595Z,7.19
2023-03-16T20:30:39.402Z,7.16
2023-03-16T20:32:41.553Z,7.17
2023-03-16T20:34:45.266Z,7.19
2023-03-16T20:36:47.170Z,7.17
2023-03-16T20:38:49.375Z,7.15
2023-03-16T20:40:52.910Z,7.16
2023-03-16T20:42:54.805Z,7.16
2023-03-16T20:44:56.971Z,7.17
2023-03-16T20:46:59.046Z,7.16
2023-03-16T20:49:01.808Z,7.15
2023-03-16T20:51:06.082Z,7.15
2023-03-16T20:53:08.078Z,7.15
2023-03-16T20:55:14.647Z,7.14
2023-03-16T20:57:20.541Z,7.15
2023-03-16T20:59:24.872Z,7.14
2023-03-16T21:01:26.911Z,7.14
2023-03-16T21:03:30.570Z,7.15
2023-03-16T21:05:32.421Z,7.14
2023-03-16T21:07:35.527Z,7.11
2023-03-16T21:09:37.071Z,7.11
2023-03-16T21:11:39.307Z,7.11
2023-03-16T21:13:43.331Z,7.10
2023-03-16T21:15:45.968Z,7.10
2023-03-16T21:17:56.143Z,7.09
2023-03-16T21:19:58.805Z,7.09
2023-03-16T21:22:01.412Z,7.07
2023-03-16T21:24:04.800Z,7.06
2023-03-16T21:26:07.140Z,7.04
2023-03-16T21:28:12.570Z,7.04
2023-03-16T21:30:23.241Z,7.02
2023-03-16T21:32:27.646Z,7.03
2023-03-16T21:34:35.946Z,7.00
2023-03-16T21:36:37.758Z,6.99
2023-03-16T21:38:39.393Z,6.97
2023-03-16T21:40:42.746Z,6.97
2023-03-16T21:42:45.368Z,6.95
2023-03-16T21:44:48.524Z,6.95
2023-03-16T21:46:50.333Z,6.92
2023-03-16T21:48:55.435Z,6.93
2023-03-16T21:50:58.958Z,6.92
2023-03-16T21:53:01.099Z,6.92
2023-03-16T21:55:03.044Z,6.92
2023-03-16T21:57:13.934Z,6.91
2023-03-16T21:59:16.005Z,6.88
2023-03-16T22:01:22.203Z,6.88
2023-03-16T22:03:29.605Z,6.88
2023-03-16T22:05:37.232Z,6.86
2023-03-16T22:07:39.637Z,6.84
2023-03-16T22:09:41.720Z,6.85
2023-03-16T22:11:43.310Z,6.81
2023-03-16T22:13:47.161Z,6.79
2023-03-16T22:15:50.809Z,6.80
2023-03-16T22:17:53.875Z,6.80
2023-03-16T22:19:55.623Z,6.80
2023-03-16T22:21:57.286Z,6.80
2023-03-16T22:24:00.692Z,6.78
2023-03-16T22:26:04.473Z,6.77
2023-03-16T22:28:11.857Z,6.76
2023-03-16T22:30:20.632Z,6.73
2023-03-16T22:32:22.743Z,6.73
2023-03-16T22:34:31.404Z,6.73
2023-03-16T22:36:34.374Z,6.74
2023-03-16T22:38:36.811Z,6.73
2023-03-16T22:40:39.027Z,6.73
2023-03-16T22:42:40.903Z,6.71
2023-03-16T22:44:42.684Z,6.74
2023-03-16T22:46:46.570Z,6.72
2023-03-16T22:48:49.434Z,6.72
2023-03-16T22:50:52.390Z,6.72
2023-03-16T22:52:57.256Z,6.71
2023-03-16T22:55:01.310Z,6.70
2023-03-16T22:57:03.337Z,6.72
2023-03-16T22:59:08.585Z,6.70
2023-03-16T23:01:16.345Z,6.72
2023-03-16T23:03:21.551Z,6.72
2023-03-16T23:05:26.278Z,6.71
2023-03-16T23:07:27.884Z,6.70
2023-03-16T23:09:29.682Z,6.70
2023-03-16T23:11:33.867Z,6.71
2023-03-16T23:13:36.224Z,6.69
2023-03-16T23:15:38.277Z,6.68
2023-03-16T23:17:40.159Z,6.68
2023-03-16T23:19:43.679Z,6.69
2023-03-16T23:21:45.293Z,6.68
2023-03-16T23:23:57.094Z,6.68
2023-03-16T23:26:02.547Z,6.66
2023-03-16T23:28:05.078Z,6.65
2023-03-16T23:30:16.188Z,6.66
2023-03-16T23:32:17.958Z,6.64
2023-03-16T23:34:22.131Z,6.63
2023-03-16T23:36:25.776Z,6.64
2023-03-16T23:38:27.878Z,6.65
2023-03-16T23:40:30.432Z,6.66
2023-03-16T23:42:32.512Z,6.66
2023-03-16T23:44:34.464Z,6.66
2023-03-16T23:46:36.046Z,6.65
2023-03-16T23:48:38.798Z,6.65
2023-03-16T23:50:41.321Z,6.66
2023-03-16T23:52:47.319Z,6.66
2023-03-16T23:54:50.315Z,6.66
2023-03-16T23:56:52.620Z,6.67
2023-03-16T23:58:54.253Z,6.64
